RKPK

Gimhae International Airport

Busan, South Korea
TAF RKPK 181100Z 1812/1918 18008KT CAVOK TN20/1821Z TX26/1906Z BECMG 1818/1819 33006KT 9999 SCT030 BKN100 BECMG 1901/1902 18008KT BECMG 1909/1910 06006KT 4800 -RA BR BKN030 BKN100 BECMG 1914/1915 03005KT
Issued Valid From Valid To
Jun-18 @ 11:00 UTC
(2 hours ago)
Jun-18 @ 12:00 UTC
(an hour ago)
Jun-19 @ 18:00 UTC
(-1 days ago)
Jun-18 @ 12:00 to Jun-18 @ 18:00
TAF RKPK 181100Z 1812/1918 18008KT CAVOK TN20/1821Z TX26/1906Z
Wind Visibility Clouds
180° at 8 knots 10,000+ meters
  • No significant clouds
Becoming Jun-18 @ 18:00 to Jun-19 @ 01:00
BECMG 1818/1819 33006KT 9999 SCT030 BKN100
Wind Visibility Clouds
330° at 6 knots 10,000+ meters
  • Scattered at 3,000' AGL
  • Broken at 10,000' AGL
Becoming Jun-19 @ 01:00 to Jun-19 @ 09:00
BECMG 1901/1902 18008KT
Wind Visibility Clouds
180° at 8 knots 10,000+ meters
  • Scattered at 3,000' AGL
  • Broken at 10,000' AGL
Becoming Jun-19 @ 09:00 to Jun-19 @ 14:00
BECMG 1909/1910 06006KT 4800 -RA BR BKN030 BKN100
Wind Visibility Clouds Conditions
60° at 6 knots 4,796 meters
  • Broken at 3,000' AGL
  • Broken at 10,000' AGL
  • Light Rain
  • Mist
Becoming Jun-19 @ 14:00 to Jun-19 @ 18:00
BECMG 1914/1915 03005KT
Wind Visibility Clouds Conditions
30° at 5 knots 4,796 meters
  • Broken at 3,000' AGL
  • Broken at 10,000' AGL
  • Light Rain
  • Mist
TAF RKPK 181100Z 1812/1918 18008KT CAVOK TN20/1821Z TX26/1906Z BECMG 1818/1819 33006KT 9999 SCT030 BKN100 BECMG 1901/1902 18008KT BECMG 1909/1910 06006KT 4800 -RA BR BKN030 BKN100 BECMG 1914/1915 03005KT
Issued Jun-18 @ 11:00 UTC
(2 hours ago)
Valid From Jun-18 @ 12:00 UTC
(an hour ago)
Valid To Jun-19 @ 18:00 UTC
(-1 days ago)
Jun-18 @ 12:00 - Jun-18 @ 18:00
Wind Visibility
180° at 8 knots 10,000+ meters
Clouds
  • No significant clouds
Becoming Jun-18 @ 18:00 - Jun-19 @ 01:00
Wind Visibility
330° at 6 knots 10,000+ meters
Clouds
  • Scattered at 3,000' AGL
  • Broken at 10,000' AGL
Becoming Jun-19 @ 01:00 - Jun-19 @ 09:00
Wind Visibility
180° at 8 knots 10,000+ meters
Clouds
  • Scattered at 3,000' AGL
  • Broken at 10,000' AGL
Becoming Jun-19 @ 09:00 - Jun-19 @ 14:00
Wind Visibility
60° at 6 knots 4,796 meters
Clouds
  • Broken at 3,000' AGL
  • Broken at 10,000' AGL
Conditions
  • Light Rain
  • Mist
Becoming Jun-19 @ 14:00 - Jun-19 @ 18:00
Wind Visibility
30° at 5 knots 4,796 meters
Clouds
  • Broken at 3,000' AGL
  • Broken at 10,000' AGL
Conditions
  • Light Rain
  • Mist